createdAt,value
2018-02-23T00:01:45.100Z,6.50
2018-02-23T00:04:12.666Z,6.78
2018-02-23T00:06:40.259Z,6.90
2018-02-23T00:09:07.811Z,6.05
2018-02-23T00:11:35.439Z,6.68
2018-02-23T00:14:03.030Z,7.30
2018-02-23T00:16:30.626Z,6.47
2018-02-23T00:18:58.215Z,7.22
2018-02-23T00:21:25.788Z,5.85
2018-02-23T00:23:53.359Z,6.87
2018-02-23T00:26:20.923Z,6.78
2018-02-23T00:28:48.502Z,6.75
2018-02-23T00:31:16.070Z,6.30
2018-02-23T00:33:44.469Z,5.87
2018-02-23T00:36:12.022Z,6.62
2018-02-23T00:38:39.578Z,6.62
2018-02-23T00:41:07.216Z,6.60
2018-02-23T00:43:34.803Z,6.28
2018-02-23T00:46:02.407Z,6.57
2018-02-23T00:48:29.967Z,6.28
2018-02-23T00:50:57.567Z,6.87
2018-02-23T00:53:25.932Z,6.03
2018-02-23T00:55:54.302Z,6.65
2018-02-23T00:58:22.650Z,6.87
2018-02-23T01:00:50.338Z,6.60
2018-02-23T01:03:17.914Z,7.70
2018-02-23T01:05:46.254Z,6.07
2018-02-23T01:08:13.850Z,7.25
2018-02-23T01:10:42.294Z,8.48
2018-02-23T01:13:09.847Z,6.45
2018-02-23T01:15:37.406Z,7.15
2018-02-23T01:18:05.003Z,6.35
2018-02-23T01:20:33.346Z,7.28
2018-02-23T01:23:00.950Z,7.22
2018-02-23T01:25:28.506Z,7.37
2018-02-23T01:27:57.007Z,7.30
2018-02-23T01:30:24.642Z,5.87
2018-02-23T01:32:53.063Z,6.55
2018-02-23T01:35:20.700Z,7.10
2018-02-23T01:37:48.266Z,7.25
2018-02-23T01:40:15.934Z,7.35
2018-02-23T01:42:42.977Z,7.37
2018-02-23T01:45:10.559Z,7.10
2018-02-23T01:47:38.122Z,6.32
2018-02-23T01:50:05.679Z,7.28
2018-02-23T01:52:33.257Z,6.55
2018-02-23T01:55:00.831Z,7.03
2018-02-23T01:57:29.191Z,6.87
2018-02-23T01:59:56.750Z,8.02
2018-02-23T02:02:24.347Z,7.47
2018-02-23T02:04:51.986Z,8.02
2018-02-23T02:07:20.478Z,7.97
2018-02-23T02:09:48.075Z,6.97
2018-02-23T02:12:15.731Z,5.97
2018-02-23T02:14:43.327Z,8.02
2018-02-23T02:17:10.887Z,6.90
2018-02-23T02:19:38.482Z,8.38
2018-02-23T02:22:06.052Z,6.03
2018-02-23T02:24:33.634Z,8.20
2018-02-23T02:27:01.214Z,7.97
2018-02-23T02:29:28.911Z,8.57
2018-02-23T02:31:57.348Z,8.60
2018-02-23T02:34:24.982Z,9.20
2018-02-23T02:36:52.659Z,8.15
2018-02-23T02:39:20.435Z,8.10
2018-02-23T02:41:48.030Z,8.80
2018-02-23T02:44:16.376Z,7.53
2018-02-23T02:46:44.812Z,8.63
2018-02-23T02:49:12.531Z,7.95
2018-02-23T02:51:40.144Z,8.45
2018-02-23T02:54:07.743Z,7.97
2018-02-23T02:56:35.299Z,7.78
2018-02-23T02:59:02.887Z,9.30
2018-02-23T03:01:30.462Z,8.68
2018-02-23T03:03:58.063Z,7.75
2018-02-23T03:06:25.664Z,9.10
2018-02-23T03:08:53.271Z,8.95
2018-02-23T03:11:20.867Z,8.65
2018-02-23T03:13:49.283Z,8.65
2018-02-23T03:16:17.027Z,10.68
2018-02-23T03:18:44.585Z,8.75
2018-02-23T03:21:12.182Z,10.05
2018-02-23T03:23:39.772Z,10.50
2018-02-23T03:26:07.338Z,9.77
2018-02-23T03:28:35.717Z,9.50
2018-02-23T03:31:03.279Z,8.77
2018-02-23T03:33:31.622Z,9.80
2018-02-23T03:35:59.190Z,8.48
2018-02-23T03:38:26.746Z,8.75
2018-02-23T03:40:54.339Z,9.18
2018-02-23T03:43:22.666Z,10.15
2018-02-23T03:45:50.258Z,9.15
2018-02-23T03:48:17.927Z,9.40
2018-02-23T03:50:46.291Z,10.13
2018-02-23T03:53:13.845Z,10.48
2018-02-23T03:55:41.404Z,8.90
2018-02-23T03:58:08.991Z,9.75
2018-02-23T04:00:37.312Z,9.10
2018-02-23T04:03:04.906Z,11.30
2018-02-23T04:05:32.471Z,10.43
2018-02-23T04:08:00.991Z,10.48
2018-02-23T04:10:28.555Z,9.20
2018-02-23T04:12:56.210Z,9.73
2018-02-23T04:15:23.794Z,10.25
2018-02-23T04:17:51.362Z,10.48
2018-02-23T04:20:18.958Z,9.27
2018-02-23T04:22:47.303Z,11.25
2018-02-23T04:25:14.905Z,11.00
2018-02-23T04:27:42.457Z,10.23
2018-02-23T04:30:11.073Z,9.68
2018-02-23T04:32:38.674Z,10.65
2018-02-23T04:35:06.278Z,10.20
2018-02-23T04:37:33.998Z,8.35
2018-02-23T04:40:01.587Z,8.63
2018-02-23T04:42:29.188Z,11.18
2018-02-23T04:44:56.746Z,9.30
2018-02-23T04:47:24.299Z,9.65
2018-02-23T04:49:51.886Z,10.80
2018-02-23T04:52:19.442Z,11.20
2018-02-23T04:54:47.926Z,9.40
2018-02-23T04:57:15.486Z,10.50
2018-02-23T04:59:43.047Z,11.00
2018-02-23T05:02:10.634Z,10.73
2018-02-23T05:04:38.197Z,12.00
2018-02-23T05:07:05.830Z,10.98
2018-02-23T05:09:34.159Z,10.00
2018-02-23T05:12:01.813Z,11.10
2018-02-23T05:14:29.482Z,10.80
2018-02-23T05:16:57.044Z,10.07
2018-02-23T05:19:24.626Z,9.45
2018-02-23T05:21:52.363Z,10.90
2018-02-23T05:24:19.955Z,10.35
2018-02-23T05:26:47.528Z,11.07
2018-02-23T05:29:16.542Z,11.70
2018-02-23T05:31:44.110Z,9.68
2018-02-23T05:34:11.730Z,11.93
2018-02-23T05:36:39.305Z,10.10
2018-02-23T05:39:07.707Z,10.75
2018-02-23T05:41:35.292Z,11.80
2018-02-23T05:44:02.883Z,10.27
2018-02-23T05:46:30.466Z,12.93
2018-02-23T05:48:58.035Z,12.23
2018-02-23T05:51:25.636Z,13.27
2018-02-23T05:53:53.214Z,10.70
2018-02-23T05:56:20.775Z,10.98
2018-02-23T05:58:48.375Z,10.95
2018-02-23T06:01:16.053Z,13.93
2018-02-23T06:03:43.663Z,13.00
2018-02-23T06:06:12.002Z,10.70
2018-02-23T06:08:39.799Z,11.18
2018-02-23T06:11:07.531Z,12.40
2018-02-23T06:13:35.135Z,10.23
2018-02-23T06:16:09.183Z,12.37
2018-02-23T06:18:42.371Z,11.65
2018-02-23T06:21:09.954Z,13.45
2018-02-23T06:23:37.641Z,11.88
2018-02-23T06:26:05.999Z,13.60
2018-02-23T06:28:33.566Z,11.43
2018-02-23T06:31:01.178Z,12.65
2018-02-23T06:33:28.747Z,11.70
2018-02-23T06:35:56.338Z,13.27
2018-02-23T06:38:23.975Z,12.23
2018-02-23T06:40:51.570Z,13.30
2018-02-23T06:43:19.257Z,12.07
2018-02-23T06:45:46.859Z,11.70
2018-02-23T06:48:14.566Z,11.20
2018-02-23T06:50:43.086Z,12.93
2018-02-23T06:53:10.670Z,12.80
2018-02-23T06:55:38.258Z,12.63
2018-02-23T06:58:06.640Z,11.57
2018-02-23T07:00:34.346Z,12.65
2018-02-23T07:03:01.914Z,11.65
2018-02-23T07:05:29.499Z,14.00
2018-02-23T07:07:57.068Z,15.23
2018-02-23T07:10:24.722Z,13.02
2018-02-23T07:12:52.285Z,14.82
2018-02-23T07:15:20.631Z,14.35
2018-02-23T07:17:48.235Z,13.35
2018-02-23T07:20:16.588Z,12.05
2018-02-23T07:22:44.181Z,13.27
2018-02-23T07:25:11.739Z,14.95
2018-02-23T07:27:39.366Z,13.18
2018-02-23T07:30:06.928Z,15.00
2018-02-23T07:32:34.486Z,12.80
2018-02-23T07:35:02.075Z,14.40
2018-02-23T07:37:29.642Z,13.68
2018-02-23T07:39:57.220Z,13.27
2018-02-23T07:42:24.791Z,15.02
2018-02-23T07:44:52.543Z,12.48
2018-02-23T07:47:20.311Z,13.85
2018-02-23T07:49:47.906Z,13.62
2018-02-23T07:52:15.470Z,13.52
2018-02-23T07:54:43.044Z,14.82
2018-02-23T07:57:11.531Z,14.60
2018-02-23T07:59:39.095Z,14.05
2018-02-23T08:02:06.680Z,14.60
2018-02-23T08:04:34.260Z,14.00
2018-02-23T08:07:01.883Z,15.57
2018-02-23T08:09:29.571Z,14.02
2018-02-23T08:11:57.216Z,14.23
2018-02-23T08:14:24.855Z,16.30
2018-02-23T08:16:53.163Z,13.93
2018-02-23T08:19:20.750Z,14.52
2018-02-23T08:24:11.060Z,14.90
2018-02-23T08:26:38.710Z,14.95
2018-02-23T08:29:06.326Z,14.85
2018-02-23T08:31:33.986Z,13.32
2018-02-23T08:34:01.602Z,13.95
2018-02-23T08:36:29.171Z,14.20
2018-02-23T08:38:57.519Z,15.07
2018-02-23T08:41:25.075Z,13.55
2018-02-23T08:43:52.674Z,16.75
2018-02-23T08:46:21.006Z,13.75
2018-02-23T08:48:48.601Z,14.75
2018-02-23T08:51:16.934Z,15.50
2018-02-23T08:53:44.583Z,17.98
2018-02-23T08:56:12.223Z,14.70
2018-02-23T08:58:39.799Z,14.90
2018-02-23T09:01:07.474Z,14.55
2018-02-23T09:03:35.046Z,15.43
2018-02-23T09:06:02.678Z,16.33
2018-02-23T09:08:30.326Z,16.08
2018-02-23T09:10:57.914Z,14.30
2018-02-23T09:13:25.473Z,16.15
2018-02-23T09:15:53.062Z,17.50
2018-02-23T09:18:20.623Z,17.60
2018-02-23T09:20:48.990Z,15.55
2018-02-23T09:23:16.578Z,14.77
2018-02-23T09:25:45.087Z,16.75
2018-02-23T09:28:12.806Z,16.33
2018-02-23T09:30:41.283Z,14.73
2018-02-23T09:33:09.751Z,17.75
2018-02-23T09:35:38.078Z,16.50
2018-02-23T09:38:05.750Z,14.70
2018-02-23T09:40:33.318Z,15.77
2018-02-23T09:43:00.939Z,18.00
2018-02-23T09:45:28.502Z,16.35
2018-02-23T09:47:56.102Z,17.50
2018-02-23T09:50:23.691Z,17.50
2018-02-23T09:52:51.263Z,17.90
2018-02-23T09:55:19.737Z,18.37
2018-02-23T09:57:48.103Z,17.55
2018-02-23T10:00:15.788Z,17.12
2018-02-23T10:02:44.123Z,14.98
2018-02-23T10:05:11.699Z,18.60
2018-02-23T10:07:39.299Z,17.33
2018-02-23T10:10:06.919Z,19.62
2018-02-23T10:12:34.482Z,19.00
2018-02-23T10:15:02.839Z,16.80
2018-02-23T10:17:30.450Z,17.90
2018-02-23T10:19:58.089Z,17.70
2018-02-23T10:22:26.458Z,19.05
2018-02-23T10:24:54.784Z,15.65
2018-02-23T10:27:22.363Z,18.00
2018-02-23T10:29:49.931Z,18.55
2018-02-23T10:32:17.687Z,18.10
2018-02-23T10:34:45.243Z,17.40
2018-02-23T10:37:12.818Z,18.17
2018-02-23T10:39:40.415Z,17.10
2018-02-23T10:42:08.030Z,16.42
2018-02-23T10:44:35.718Z,17.23
2018-02-23T10:47:04.076Z,18.45
2018-02-23T10:49:31.638Z,19.87
2018-02-23T10:51:59.226Z,18.25
2018-02-23T10:54:26.795Z,17.58
2018-02-23T10:56:54.399Z,19.23
2018-02-23T10:59:21.966Z,17.10
2018-02-23T11:01:49.576Z,16.37
2018-02-23T11:04:17.134Z,17.40
2018-02-23T11:06:44.784Z,16.87
2018-02-23T11:09:12.463Z,19.50
2018-02-23T11:11:40.075Z,18.08
2018-02-23T11:14:07.802Z,18.20
2018-02-23T11:16:35.391Z,18.75
2018-02-23T11:19:02.978Z,18.65
2018-02-23T11:21:30.581Z,21.30
2018-02-23T11:23:58.283Z,19.60
2018-02-23T11:26:26.614Z,21.60
2018-02-23T11:28:54.258Z,19.35
2018-02-23T11:31:21.842Z,21.73
2018-02-23T11:33:49.435Z,19.17
2018-02-23T11:36:17.906Z,19.80
2018-02-23T11:38:45.474Z,20.00
2018-02-23T11:41:13.867Z,19.45
2018-02-23T11:43:42.192Z,19.67
2018-02-23T11:46:09.942Z,18.92
2018-02-23T11:48:37.531Z,19.65
2018-02-23T11:51:05.118Z,18.73
2018-02-23T11:53:33.499Z,17.98
2018-02-23T11:56:01.899Z,19.00
2018-02-23T11:58:29.498Z,18.62
2018-02-23T12:00:57.162Z,21.25
2018-02-23T12:03:24.767Z,18.45
2018-02-23T12:05:52.331Z,18.23
2018-02-23T12:08:20.001Z,17.87
2018-02-23T12:10:47.571Z,20.77
2018-02-23T12:13:15.224Z,19.75
2018-02-23T12:15:42.851Z,20.48
2018-02-23T12:18:11.203Z,19.90
2018-02-23T12:20:38.808Z,18.58
2018-02-23T12:23:06.381Z,18.67
2018-02-23T12:25:33.995Z,19.48
2018-02-23T12:28:01.582Z,18.65
2018-02-23T12:30:29.174Z,19.42
2018-02-23T12:32:56.723Z,18.33
2018-02-23T12:35:24.324Z,19.12
2018-02-23T12:37:52.674Z,18.25
2018-02-23T12:40:20.290Z,20.88
2018-02-23T12:42:47.859Z,18.20
2018-02-23T12:45:15.422Z,19.30
2018-02-23T12:47:43.138Z,17.62
2018-02-23T12:50:10.713Z,18.17
2018-02-23T12:52:39.086Z,20.73
2018-02-23T12:57:42.100Z,16.70
2018-02-23T13:00:09.671Z,16.50
2018-02-23T13:02:37.304Z,18.83
2018-02-23T13:05:05.667Z,20.17
2018-02-23T13:07:33.256Z,21.33
2018-02-23T13:10:00.847Z,21.65
2018-02-23T13:12:28.455Z,20.90
2018-02-23T13:15:02.514Z,20.33
2018-02-23T13:17:30.105Z,16.25
2018-02-23T13:19:57.680Z,18.35
2018-02-23T13:22:26.059Z,17.55
2018-02-23T13:24:54.491Z,21.73
2018-02-23T13:27:22.098Z,19.08
2018-02-23T13:29:50.530Z,19.62
2018-02-23T13:32:18.086Z,19.60
2018-02-23T13:34:45.678Z,15.85
2018-02-23T13:37:14.017Z,18.12
2018-02-23T13:39:42.227Z,17.83
2018-02-23T13:42:09.776Z,17.42
2018-02-23T13:44:37.368Z,14.30
2018-02-23T13:47:05.703Z,20.23
2018-02-23T13:49:33.303Z,16.95
2018-02-23T13:52:01.788Z,17.58
2018-02-23T13:54:30.203Z,16.12
2018-02-23T13:56:57.803Z,17.15
2018-02-23T13:59:25.538Z,17.00
2018-02-23T14:01:53.130Z,16.05
2018-02-23T14:04:21.542Z,16.85
2018-02-23T14:06:49.101Z,17.55
2018-02-23T14:09:16.727Z,19.67
2018-02-23T14:11:45.084Z,17.05
2018-02-23T14:14:12.807Z,18.02
2018-02-23T14:16:40.380Z,15.63
2018-02-23T14:19:07.997Z,16.00
2018-02-23T14:21:36.344Z,15.30
2018-02-23T14:24:03.938Z,16.27
2018-02-23T14:26:31.526Z,14.75
2018-02-23T14:28:59.099Z,16.83
2018-02-23T14:31:26.703Z,18.90
2018-02-23T14:33:55.046Z,16.95
2018-02-23T14:36:22.744Z,15.48
2018-02-23T14:38:51.182Z,20.00
2018-02-23T14:41:18.787Z,15.98
2018-02-23T14:43:47.134Z,14.90
2018-02-23T14:46:14.753Z,16.65
2018-02-23T14:48:54.109Z,14.90
2018-02-23T14:51:21.699Z,17.45
2018-02-23T14:53:49.379Z,17.08
2018-02-23T14:56:17.707Z,16.20
2018-02-23T14:58:45.306Z,16.25
2018-02-23T15:01:13.650Z,17.23
2018-02-23T15:03:41.235Z,15.13
2018-02-23T15:06:09.616Z,17.35
2018-02-23T15:08:38.144Z,16.50
2018-02-23T15:11:05.828Z,17.37
2018-02-23T15:13:33.435Z,17.45
2018-02-23T15:16:01.015Z,14.13
2018-02-23T15:18:28.583Z,16.15
2018-02-23T15:20:56.188Z,16.87
2018-02-23T15:23:23.754Z,18.10
2018-02-23T15:25:51.358Z,17.73
2018-02-23T15:28:18.975Z,16.67
2018-02-23T15:30:59.242Z,15.77
2018-02-23T15:33:27.649Z,17.48
2018-02-23T15:35:55.263Z,17.40
2018-02-23T15:38:22.827Z,16.58
2018-02-23T15:40:51.302Z,18.75
2018-02-23T15:43:19.679Z,17.90
2018-02-23T15:45:48.078Z,15.88
2018-02-23T15:48:15.723Z,17.58
2018-02-23T15:50:54.747Z,17.70
2018-02-23T15:53:23.083Z,19.05
2018-02-23T15:55:50.660Z,19.33
2018-02-23T16:01:17.493Z,21.17
2018-02-23T16:03:45.199Z,18.85
2018-02-23T16:06:12.791Z,19.87
2018-02-23T16:08:40.388Z,18.67
2018-02-23T16:11:07.955Z,18.95
2018-02-23T16:13:35.523Z,19.12
2018-02-23T16:16:03.114Z,20.52
2018-02-23T16:18:30.699Z,20.00
2018-02-23T16:20:58.404Z,17.90
2018-02-23T16:23:25.980Z,17.85
2018-02-23T16:25:54.467Z,16.90
2018-02-23T16:28:22.862Z,19.42
2018-02-23T16:30:50.430Z,19.45
2018-02-23T16:33:18.024Z,19.23
2018-02-23T16:35:45.602Z,17.17
2018-02-23T16:38:13.967Z,20.35
2018-02-23T16:40:41.531Z,19.12
2018-02-23T16:43:09.148Z,18.23
2018-02-23T16:45:36.723Z,18.35
2018-02-23T16:48:04.284Z,19.05
2018-02-23T16:50:31.892Z,18.33
2018-02-23T16:53:00.215Z,18.52
2018-02-23T16:55:27.804Z,19.40
2018-02-23T16:57:55.390Z,17.20
2018-02-23T17:00:23.759Z,20.62
2018-02-23T17:02:52.096Z,18.48
2018-02-23T17:05:19.703Z,17.05
2018-02-23T17:07:48.061Z,19.42
2018-02-23T17:10:15.690Z,21.42
2018-02-23T17:12:43.262Z,20.20
2018-02-23T17:15:10.876Z,18.62
2018-02-23T17:17:38.472Z,17.60
2018-02-23T17:20:06.088Z,18.98
2018-02-23T17:22:33.851Z,18.87
2018-02-23T17:25:01.463Z,18.80
2018-02-23T17:27:29.252Z,18.55
2018-02-23T17:29:57.607Z,18.75
2018-02-23T17:32:25.222Z,19.50
2018-02-23T17:34:52.859Z,17.62
2018-02-23T17:37:21.299Z,18.50
2018-02-23T17:39:48.906Z,17.62
2018-02-23T17:42:16.455Z,19.02
2018-02-23T17:44:44.842Z,18.17
2018-02-23T17:47:12.412Z,18.65
2018-02-23T17:49:39.982Z,15.63
2018-02-23T17:52:07.602Z,19.98
2018-02-23T17:54:35.986Z,19.83
2018-02-23T17:57:04.347Z,17.25
2018-02-23T17:59:32.078Z,17.80
2018-02-23T18:01:59.787Z,17.23
2018-02-23T18:04:28.134Z,18.35
2018-02-23T18:06:55.806Z,18.75
2018-02-23T18:09:23.405Z,20.75
2018-02-23T18:11:51.023Z,20.27
2018-02-23T18:14:18.690Z,18.45
2018-02-23T18:16:47.019Z,18.33
2018-02-23T18:19:14.659Z,20.50
2018-02-23T18:21:42.231Z,19.55
2018-02-23T18:24:10.057Z,19.12
2018-02-23T18:26:38.518Z,18.83
2018-02-23T18:29:06.877Z,17.65
2018-02-23T18:31:34.487Z,17.75
2018-02-23T18:34:02.099Z,20.25
2018-02-23T18:36:29.690Z,17.87
2018-02-23T18:38:58.031Z,21.42
2018-02-23T18:41:25.794Z,17.48
2018-02-23T18:43:53.404Z,12.57
2018-02-23T18:46:21.004Z,18.02
2018-02-23T18:48:48.575Z,19.62
2018-02-23T18:51:16.202Z,16.87
2018-02-23T18:53:43.822Z,16.20
2018-02-23T18:56:12.174Z,19.95
2018-02-23T18:58:39.814Z,18.00
2018-02-23T19:01:07.398Z,15.70
2018-02-23T19:03:35.018Z,19.83
2018-02-23T19:06:03.379Z,22.33
2018-02-23T19:08:30.958Z,19.05
2018-02-23T19:10:58.603Z,15.20
2018-02-23T19:13:26.272Z,18.60
2018-02-23T19:15:53.900Z,17.15
2018-02-23T19:18:22.259Z,18.75
2018-02-23T19:20:49.836Z,18.60
2018-02-23T19:23:18.297Z,20.60
2018-02-23T19:25:45.867Z,15.02
2018-02-23T19:28:14.250Z,18.55
2018-02-23T19:30:42.585Z,19.02
2018-02-23T19:33:10.187Z,18.20
2018-02-23T19:35:38.563Z,17.00
2018-02-23T19:38:06.967Z,15.30
2018-02-23T19:40:34.735Z,19.80
2018-02-23T19:43:02.420Z,18.45
2018-02-23T19:45:30.064Z,16.80
2018-02-23T19:47:57.673Z,15.38
2018-02-23T19:50:25.300Z,13.65
2018-02-23T19:52:52.887Z,21.90
2018-02-23T19:55:20.488Z,18.90
2018-02-23T19:57:48.123Z,18.58
2018-02-23T20:00:16.467Z,21.70
2018-02-23T20:02:44.182Z,18.70
2018-02-23T20:05:11.752Z,20.00
2018-02-23T20:07:39.391Z,17.37
2018-02-23T20:10:07.739Z,17.48
2018-02-23T20:12:35.348Z,20.30
2018-02-23T20:15:02.942Z,16.35
2018-02-23T20:17:30.551Z,19.15
2018-02-23T20:19:58.148Z,15.70
2018-02-23T20:22:25.735Z,25.37
2018-02-23T20:24:53.319Z,22.60
2018-02-23T20:27:21.782Z,19.85
2018-02-23T20:29:49.351Z,24.52
2018-02-23T20:32:17.722Z,18.55
2018-02-23T20:34:46.071Z,25.23
2018-02-23T20:37:13.672Z,19.60
2018-02-23T20:39:42.003Z,18.77
2018-02-23T20:42:09.595Z,13.62
2018-02-23T20:44:37.924Z,21.20
2018-02-23T20:47:05.518Z,19.55
2018-02-23T20:49:33.114Z,21.58
2018-02-23T20:52:00.724Z,20.42
2018-02-23T20:54:28.336Z,20.80
2018-02-23T20:56:56.158Z,20.48
2018-02-23T20:59:23.832Z,22.42
2018-02-23T21:01:51.411Z,20.92
2018-02-23T21:04:19.027Z,20.67
2018-02-23T21:06:46.802Z,22.23
2018-02-23T21:09:14.381Z,21.90
2018-02-23T21:11:42.751Z,20.12
2018-02-23T21:14:11.101Z,17.77
2018-02-23T21:16:38.703Z,22.73
2018-02-23T21:19:07.133Z,23.10
2018-02-23T21:21:34.766Z,21.35
2018-02-23T21:24:02.326Z,21.02
2018-02-23T21:26:29.895Z,20.95
2018-02-23T21:28:57.518Z,21.50
2018-02-23T21:31:25.847Z,23.10
2018-02-23T21:33:53.435Z,22.73
2018-02-23T21:36:21.006Z,23.80
2018-02-23T21:38:49.398Z,20.60
2018-02-23T21:41:17.007Z,20.80
2018-02-23T21:43:44.615Z,20.17
2018-02-23T21:46:12.179Z,23.12
2018-02-23T21:48:39.744Z,21.85
2018-02-23T21:51:07.343Z,22.67
2018-02-23T21:53:34.911Z,23.75
2018-02-23T21:56:02.544Z,20.67
2018-02-23T21:58:30.145Z,20.52
2018-02-23T22:00:58.519Z,23.55
2018-02-23T22:03:26.106Z,22.00
2018-02-23T22:05:53.715Z,23.58
2018-02-23T22:08:21.315Z,23.55
2018-02-23T22:10:49.707Z,21.70
2018-02-23T22:13:17.475Z,22.35
2018-02-23T22:15:45.038Z,16.65
2018-02-23T22:18:12.633Z,21.87
2018-02-23T22:20:40.210Z,19.15
2018-02-23T22:23:07.770Z,27.50
2018-02-23T22:25:35.461Z,23.02
2018-02-23T22:28:03.059Z,22.42
2018-02-23T22:30:30.639Z,23.73
2018-02-23T22:32:58.199Z,22.42
2018-02-23T22:35:25.812Z,21.62
2018-02-23T22:37:53.393Z,22.48
2018-02-23T22:40:20.998Z,21.37
2018-02-23T22:42:49.388Z,22.00
2018-02-23T22:45:17.899Z,23.38
2018-02-23T22:47:45.463Z,20.90
2018-02-23T22:50:13.233Z,21.80
2018-02-23T22:52:40.836Z,21.15
2018-02-23T22:55:09.175Z,21.55
2018-02-23T22:57:36.782Z,20.50
2018-02-23T23:00:05.249Z,21.90
2018-02-23T23:02:33.599Z,24.00
2018-02-23T23:05:01.189Z,21.48
2018-02-23T23:07:29.568Z,21.75
2018-02-23T23:09:57.920Z,21.25
2018-02-23T23:12:25.522Z,22.02
2018-02-23T23:14:53.118Z,22.83
2018-02-23T23:17:20.742Z,23.95
2018-02-23T23:19:48.423Z,22.87
2018-02-23T23:22:16.074Z,22.30
2018-02-23T23:24:43.674Z,22.62
2018-02-23T23:27:11.247Z,23.40
2018-02-23T23:29:38.906Z,24.87
2018-02-23T23:32:06.620Z,30.05
2018-02-23T23:34:34.206Z,22.35
2018-02-23T23:37:01.967Z,25.33
2018-02-23T23:39:31.493Z,22.15
2018-02-23T23:41:59.236Z,22.10
2018-02-23T23:44:26.801Z,22.50
2018-02-23T23:46:54.475Z,21.77
2018-02-23T23:49:22.046Z,22.92
2018-02-23T23:51:50.418Z,21.83
2018-02-23T23:54:17.976Z,21.33
2018-02-23T23:56:46.348Z,22.42
2018-02-23T23:59:13.912Z,19.52
